FNHU

Nova Lisboa Airport

Huambo, Angola
METAR FNHU 240700Z VRB02KT CAVOK 17/11 Q1025
Observed Flight Rules
May-24 @ 07:00 UTC (an hour ago) Visual Flight Rules
Wind Visibility Clouds
Variable at 2 knots 10,000+ meters
  • Clear skies
Temperatures Readings
Current 17°C / 63°F
Dewpoint 11°C / 52°F
Humidity 68%
Altimeter 30.27" Hg
Pressure 1025 hPa
Elevation 1701
METAR FNHU 240700Z VRB02KT CAVOK 17/11 Q1025
Observed Flight Rules
May-24 @ 07:00 UTC
(an hour ago)
VFR
Wind Visibility
Variable at 2 knots 10,000+ meters
Clouds
  • Clear skies
Temperature Dewpoint
17°C / 63°F 11°C / 52°F
Humidity Altimeter Pressure
68% 30.27" Hg 1025 hPa